This is the latest recevied weather packets stored in our database for station/object WC4PEM-6. If no packets are shown the sender has not sent any weather packets the latest 10 day(s).
| Time | Temp. | Humidity | Pressure | Rain* | Wind** | Luminosity | Snow |
|---|---|---|---|---|---|---|---|
| 1778077332 | 26.67° C | 72% | 1016.8 hPa | 0 mm | - | - | - |
| 1778077313 | 26.11° C | 75% | 1016.5 hPa | 0 mm | - | - | - |
| 1778077258 | 26.11° C | 75% | 1016.5 hPa | 0 mm | - | - | - |
| 1778077203 | 26.67° C | 72% | 1016.8 hPa | 0 mm | - | - | - |
| 1778077203 | 26.11° C | 75% | 1016.5 hPa | 0 mm | - | - | - |
| 1778077149 | 26.11° C | 75% | 1016.5 hPa | 0 mm | - | - | - |
| 1778077094 | 26.11° C | 75% | 1016.5 hPa | 0 mm | - | - | - |
| 1778076991 | 26.67° C | 73% | 1016.9 hPa | 0 mm | - | - | - |
| 1778076903 | 26.67° C | 73% | 1016.9 hPa | 0 mm | - | - | - |
| 1778076603 | 26.67° C | 73% | 1016.8 hPa | 0 mm | - | - | - |
| 1778076303 | 26.67° C | 73% | 1016.7 hPa | 0 mm | - | - | - |
| 1778076099 | 26.11° C | 75% | 1016.5 hPa | 0 mm | - | - | - |
| 1778076003 | 26.11° C | 75% | 1016.5 hPa | 0 mm | - | - | - |
| 1778075886 | 26.11° C | 73% | 1016.6 hPa | 0 mm | - | - | - |
| 1778075703 | 26.11° C | 73% | 1016.6 hPa | 0 mm | - | - | - |
| 1778075403 | 25.56° C | 75% | 1016.7 hPa | 0 mm | - | - | - |
| 1778075103 | 25.56° C | 77% | 1016.8 hPa | 0 mm | - | - | - |
| 1778074803 | 25.56° C | 77% | 1017 hPa | 0 mm | - | - | - |
| 1778074503 | 25.56° C | 78% | 1016.7 hPa | 0 mm | - | - | - |
| 1778074203 | 25° C | 79% | 1016.7 hPa | 0 mm | - | - | - |
| 1778073946 | 25° C | 79% | 1016.4 hPa | 0 mm | - | - | - |
| 1778073903 | 25° C | 79% | 1016.4 hPa | 0 mm | - | - | - |
| 1778073603 | 25° C | 81% | 1016.5 hPa | 0 mm | - | - | - |
| 1778073445 | 24.44° C | 82% | 1016.5 hPa | 0 mm | - | - | - |
| 1778073335 | 24.44° C | 82% | 1016.5 hPa | 0 mm | - | - | - |
* Rain latest hour (hover to see other rain measurements)
** Current wind speed in m/s (hover to see current wind gust speed)